sensor_id;sensor_type;location;lat;lon;timestamp;P1;durP1;ratioP1;P2;durP2;ratioP2
35969;SDS011;22448;51.298;6.430;2022-07-10T00:00:46;7.30;;;1.70;;
35969;SDS011;22448;51.298;6.430;2022-07-10T00:03:13;8.80;;;1.80;;
35969;SDS011;22448;51.298;6.430;2022-07-10T00:05:40;8.95;;;1.70;;
35969;SDS011;22448;51.298;6.430;2022-07-10T00:08:07;6.25;;;1.63;;
35969;SDS011;22448;51.298;6.430;2022-07-10T00:10:34;12.57;;;1.65;;
35969;SDS011;22448;51.298;6.430;2022-07-10T00:13:01;10.25;;;1.88;;
35969;SDS011;22448;51.298;6.430;2022-07-10T00:15:28;6.32;;;1.67;;
35969;SDS011;22448;51.298;6.430;2022-07-10T00:17:58;7.22;;;1.77;;
35969;SDS011;22448;51.298;6.430;2022-07-10T00:20:25;8.20;;;1.90;;
35969;SDS011;22448;51.298;6.430;2022-07-10T00:22:52;10.20;;;2.40;;
35969;SDS011;22448;51.298;6.430;2022-07-10T00:25:26;16.35;;;2.15;;
35969;SDS011;22448;51.298;6.430;2022-07-10T00:27:54;11.70;;;2.13;;
35969;SDS011;22448;51.298;6.430;2022-07-10T00:30:21;11.00;;;1.70;;
35969;SDS011;22448;51.298;6.430;2022-07-10T00:32:48;10.25;;;2.25;;
35969;SDS011;22448;51.298;6.430;2022-07-10T00:35:15;13.30;;;2.00;;
35969;SDS011;22448;51.298;6.430;2022-07-10T00:37:42;12.13;;;2.25;;
35969;SDS011;22448;51.298;6.430;2022-07-10T00:40:09;7.80;;;2.30;;
35969;SDS011;22448;51.298;6.430;2022-07-10T00:42:36;13.38;;;2.28;;
35969;SDS011;22448;51.298;6.430;2022-07-10T00:45:03;10.02;;;1.98;;
35969;SDS011;22448;51.298;6.430;2022-07-10T00:47:31;9.63;;;1.98;;
35969;SDS011;22448;51.298;6.430;2022-07-10T00:49:58;6.68;;;1.50;;
35969;SDS011;22448;51.298;6.430;2022-07-10T00:52:25;10.88;;;2.10;;
35969;SDS011;22448;51.298;6.430;2022-07-10T00:54:53;15.02;;;2.50;;
35969;SDS011;22448;51.298;6.430;2022-07-10T00:57:20;10.52;;;1.55;;
35969;SDS011;22448;51.298;6.430;2022-07-10T00:59:48;11.43;;;1.80;;
35969;SDS011;22448;51.298;6.430;2022-07-10T01:02:16;10.13;;;1.88;;
35969;SDS011;22448;51.298;6.430;2022-07-10T01:04:43;8.25;;;1.70;;
35969;SDS011;22448;51.298;6.430;2022-07-10T01:07:11;9.27;;;1.92;;
35969;SDS011;22448;51.298;6.430;2022-07-10T01:09:38;6.47;;;1.35;;
35969;SDS011;22448;51.298;6.430;2022-07-10T01:12:05;9.43;;;1.70;;
35969;SDS011;22448;51.298;6.430;2022-07-10T01:14:33;9.43;;;1.70;;
35969;SDS011;22448;51.298;6.430;2022-07-10T01:17:02;8.55;;;1.55;;
35969;SDS011;22448;51.298;6.430;2022-07-10T01:19:31;12.68;;;2.00;;
35969;SDS011;22448;51.298;6.430;2022-07-10T01:21:58;8.70;;;2.08;;
35969;SDS011;22448;51.298;6.430;2022-07-10T01:24:25;7.03;;;1.50;;
35969;SDS011;22448;51.298;6.430;2022-07-10T01:26:52;10.52;;;2.05;;
35969;SDS011;22448;51.298;6.430;2022-07-10T01:29:19;8.52;;;2.05;;
35969;SDS011;22448;51.298;6.430;2022-07-10T01:31:48;11.65;;;2.03;;
35969;SDS011;22448;51.298;6.430;2022-07-10T01:34:22;10.02;;;1.88;;
35969;SDS011;22448;51.298;6.430;2022-07-10T01:36:49;15.68;;;2.17;;
35969;SDS011;22448;51.298;6.430;2022-07-10T01:39:16;9.40;;;2.13;;
35969;SDS011;22448;51.298;6.430;2022-07-10T01:41:43;9.63;;;2.10;;
35969;SDS011;22448;51.298;6.430;2022-07-10T01:44:10;10.48;;;2.22;;
35969;SDS011;22448;51.298;6.430;2022-07-10T01:46:44;12.82;;;1.80;;
35969;SDS011;22448;51.298;6.430;2022-07-10T01:49:12;6.07;;;1.88;;
35969;SDS011;22448;51.298;6.430;2022-07-10T01:51:39;7.57;;;1.95;;
35969;SDS011;22448;51.298;6.430;2022-07-10T01:54:07;10.85;;;2.35;;
35969;SDS011;22448;51.298;6.430;2022-07-10T01:56:34;8.07;;;2.00;;
35969;SDS011;22448;51.298;6.430;2022-07-10T01:59:01;6.47;;;1.65;;
35969;SDS011;22448;51.298;6.430;2022-07-10T02:01:30;10.15;;;2.50;;
35969;SDS011;22448;51.298;6.430;2022-07-10T02:03:58;12.93;;;2.58;;
35969;SDS011;22448;51.298;6.430;2022-07-10T02:06:43;9.73;;;2.53;;
35969;SDS011;22448;51.298;6.430;2022-07-10T02:09:11;10.52;;;2.08;;
35969;SDS011;22448;51.298;6.430;2022-07-10T02:11:38;10.60;;;2.30;;
35969;SDS011;22448;51.298;6.430;2022-07-10T02:14:05;15.75;;;2.85;;
35969;SDS011;22448;51.298;6.430;2022-07-10T02:16:32;11.45;;;2.50;;
35969;SDS011;22448;51.298;6.430;2022-07-10T02:18:59;8.25;;;2.25;;
35969;SDS011;22448;51.298;6.430;2022-07-10T02:21:26;10.93;;;2.78;;
35969;SDS011;22448;51.298;6.430;2022-07-10T02:23:53;6.50;;;2.08;;
35969;SDS011;22448;51.298;6.430;2022-07-10T02:26:20;10.75;;;2.30;;
35969;SDS011;22448;51.298;6.430;2022-07-10T02:28:47;10.13;;;2.55;;
35969;SDS011;22448;51.298;6.430;2022-07-10T02:31:14;13.38;;;2.45;;
35969;SDS011;22448;51.298;6.430;2022-07-10T02:33:41;12.43;;;2.58;;
35969;SDS011;22448;51.298;6.430;2022-07-10T02:36:08;9.93;;;2.25;;
35969;SDS011;22448;51.298;6.430;2022-07-10T02:38:35;13.65;;;2.47;;
35969;SDS011;22448;51.298;6.430;2022-07-10T02:41:02;8.85;;;2.15;;
35969;SDS011;22448;51.298;6.430;2022-07-10T02:43:29;7.63;;;2.10;;
35969;SDS011;22448;51.298;6.430;2022-07-10T02:45:56;10.50;;;2.45;;
35969;SDS011;22448;51.298;6.430;2022-07-10T02:48:23;8.15;;;2.45;;
35969;SDS011;22448;51.298;6.430;2022-07-10T02:50:51;11.73;;;2.42;;
35969;SDS011;22448;51.298;6.430;2022-07-10T02:53:18;8.20;;;2.50;;
35969;SDS011;22448;51.298;6.430;2022-07-10T02:55:45;13.40;;;2.50;;
35969;SDS011;22448;51.298;6.430;2022-07-10T02:58:12;16.35;;;2.67;;
35969;SDS011;22448;51.298;6.430;2022-07-10T03:00:41;11.73;;;2.78;;
35969;SDS011;22448;51.298;6.430;2022-07-10T03:03:08;10.30;;;2.63;;
35969;SDS011;22448;51.298;6.430;2022-07-10T03:05:36;7.03;;;2.03;;
35969;SDS011;22448;51.298;6.430;2022-07-10T03:08:03;14.40;;;2.65;;
35969;SDS011;22448;51.298;6.430;2022-07-10T03:10:30;13.45;;;2.50;;
35969;SDS011;22448;51.298;6.430;2022-07-10T03:12:57;6.78;;;2.38;;
35969;SDS011;22448;51.298;6.430;2022-07-10T03:15:24;13.43;;;2.70;;
35969;SDS011;22448;51.298;6.430;2022-07-10T03:17:51;12.82;;;2.65;;
35969;SDS011;22448;51.298;6.430;2022-07-10T03:20:18;6.95;;;2.45;;
35969;SDS011;22448;51.298;6.430;2022-07-10T03:22:46;11.27;;;2.80;;
35969;SDS011;22448;51.298;6.430;2022-07-10T03:25:12;12.77;;;2.30;;
35969;SDS011;22448;51.298;6.430;2022-07-10T03:27:40;17.20;;;2.88;;
35969;SDS011;22448;51.298;6.430;2022-07-10T03:30:07;7.97;;;2.45;;
35969;SDS011;22448;51.298;6.430;2022-07-10T03:32:34;6.38;;;2.38;;
35969;SDS011;22448;51.298;6.430;2022-07-10T03:35:02;9.07;;;2.78;;
35969;SDS011;22448;51.298;6.430;2022-07-10T03:37:29;11.02;;;2.90;;
35969;SDS011;22448;51.298;6.430;2022-07-10T03:39:56;9.13;;;2.35;;
35969;SDS011;22448;51.298;6.430;2022-07-10T03:42:23;8.43;;;2.80;;
35969;SDS011;22448;51.298;6.430;2022-07-10T03:44:50;11.98;;;3.00;;
35969;SDS011;22448;51.298;6.430;2022-07-10T03:47:17;17.10;;;3.25;;
35969;SDS011;22448;51.298;6.430;2022-07-10T03:49:44;19.20;;;3.00;;
35969;SDS011;22448;51.298;6.430;2022-07-10T03:52:11;9.55;;;3.53;;
35969;SDS011;22448;51.298;6.430;2022-07-10T03:54:38;9.80;;;2.83;;
35969;SDS011;22448;51.298;6.430;2022-07-10T03:57:05;14.27;;;3.10;;
35969;SDS011;22448;51.298;6.430;2022-07-10T03:59:51;14.43;;;3.17;;
35969;SDS011;22448;51.298;6.430;2022-07-10T04:02:18;13.27;;;3.45;;
35969;SDS011;22448;51.298;6.430;2022-07-10T04:04:45;9.27;;;2.90;;
35969;SDS011;22448;51.298;6.430;2022-07-10T04:07:12;7.28;;;2.78;;
35969;SDS011;22448;51.298;6.430;2022-07-10T04:09:39;9.10;;;2.78;;
35969;SDS011;22448;51.298;6.430;2022-07-10T04:12:06;10.15;;;3.10;;
35969;SDS011;22448;51.298;6.430;2022-07-10T04:14:34;12.45;;;3.13;;
35969;SDS011;22448;51.298;6.430;2022-07-10T04:17:01;14.23;;;3.33;;
35969;SDS011;22448;51.298;6.430;2022-07-10T04:19:28;15.52;;;2.65;;
35969;SDS011;22448;51.298;6.430;2022-07-10T04:21:55;9.63;;;2.95;;
35969;SDS011;22448;51.298;6.430;2022-07-10T04:24:22;8.32;;;3.03;;
35969;SDS011;22448;51.298;6.430;2022-07-10T04:26:49;9.82;;;3.08;;
35969;SDS011;22448;51.298;6.430;2022-07-10T04:29:16;11.13;;;2.58;;
35969;SDS011;22448;51.298;6.430;2022-07-10T04:31:43;9.52;;;2.85;;
35969;SDS011;22448;51.298;6.430;2022-07-10T04:34:10;11.70;;;2.95;;
35969;SDS011;22448;51.298;6.430;2022-07-10T04:36:37;15.57;;;3.10;;
35969;SDS011;22448;51.298;6.430;2022-07-10T04:39:04;10.77;;;2.80;;
35969;SDS011;22448;51.298;6.430;2022-07-10T04:41:31;14.82;;;3.55;;
35969;SDS011;22448;51.298;6.430;2022-07-10T04:43:58;13.48;;;3.15;;
35969;SDS011;22448;51.298;6.430;2022-07-10T04:46:25;13.45;;;3.20;;
35969;SDS011;22448;51.298;6.430;2022-07-10T04:48:52;8.57;;;2.88;;
35969;SDS011;22448;51.298;6.430;2022-07-10T04:51:19;10.52;;;2.63;;
35969;SDS011;22448;51.298;6.430;2022-07-10T04:53:47;14.45;;;2.72;;
35969;SDS011;22448;51.298;6.430;2022-07-10T04:56:14;11.70;;;2.80;;
35969;SDS011;22448;51.298;6.430;2022-07-10T04:58:41;12.55;;;2.90;;
35969;SDS011;22448;51.298;6.430;2022-07-10T05:01:14;12.95;;;2.70;;
35969;SDS011;22448;51.298;6.430;2022-07-10T05:03:41;8.30;;;2.50;;
35969;SDS011;22448;51.298;6.430;2022-07-10T05:06:09;10.75;;;2.80;;
35969;SDS011;22448;51.298;6.430;2022-07-10T05:08:36;12.20;;;2.85;;
35969;SDS011;22448;51.298;6.430;2022-07-10T05:11:03;12.27;;;2.85;;
35969;SDS011;22448;51.298;6.430;2022-07-10T05:13:30;15.88;;;3.15;;
35969;SDS011;22448;51.298;6.430;2022-07-10T05:15:57;13.35;;;3.17;;
35969;SDS011;22448;51.298;6.430;2022-07-10T05:18:24;9.60;;;2.75;;
35969;SDS011;22448;51.298;6.430;2022-07-10T05:20:51;11.23;;;2.97;;
35969;SDS011;22448;51.298;6.430;2022-07-10T05:23:18;14.35;;;2.75;;
35969;SDS011;22448;51.298;6.430;2022-07-10T05:25:46;12.30;;;2.58;;
35969;SDS011;22448;51.298;6.430;2022-07-10T05:28:13;9.15;;;2.28;;
35969;SDS011;22448;51.298;6.430;2022-07-10T05:30:41;7.75;;;2.50;;
35969;SDS011;22448;51.298;6.430;2022-07-10T05:33:08;7.82;;;2.47;;
35969;SDS011;22448;51.298;6.430;2022-07-10T05:35:36;11.80;;;2.85;;
35969;SDS011;22448;51.298;6.430;2022-07-10T05:38:03;10.32;;;2.75;;
35969;SDS011;22448;51.298;6.430;2022-07-10T05:40:30;13.63;;;3.05;;
35969;SDS011;22448;51.298;6.430;2022-07-10T05:42:58;10.13;;;2.92;;
35969;SDS011;22448;51.298;6.430;2022-07-10T05:45:25;12.27;;;3.00;;
35969;SDS011;22448;51.298;6.430;2022-07-10T05:47:52;9.32;;;2.70;;
35969;SDS011;22448;51.298;6.430;2022-07-10T05:50:20;16.40;;;3.42;;
35969;SDS011;22448;51.298;6.430;2022-07-10T05:52:47;13.07;;;3.20;;
35969;SDS011;22448;51.298;6.430;2022-07-10T05:55:14;20.70;;;3.78;;
35969;SDS011;22448;51.298;6.430;2022-07-10T05:57:41;11.60;;;3.45;;
35969;SDS011;22448;51.298;6.430;2022-07-10T06:00:09;9.00;;;3.22;;
35969;SDS011;22448;51.298;6.430;2022-07-10T06:02:39;10.75;;;3.22;;
35969;SDS011;22448;51.298;6.430;2022-07-10T06:05:06;10.10;;;2.88;;
35969;SDS011;22448;51.298;6.430;2022-07-10T06:07:33;12.57;;;3.35;;
35969;SDS011;22448;51.298;6.430;2022-07-10T06:10:01;12.00;;;3.00;;
35969;SDS011;22448;51.298;6.430;2022-07-10T06:12:29;11.05;;;2.92;;
35969;SDS011;22448;51.298;6.430;2022-07-10T06:14:56;13.23;;;3.40;;
35969;SDS011;22448;51.298;6.430;2022-07-10T06:17:23;12.82;;;2.97;;
35969;SDS011;22448;51.298;6.430;2022-07-10T06:19:50;12.88;;;2.78;;
35969;SDS011;22448;51.298;6.430;2022-07-10T06:22:17;14.10;;;3.63;;
35969;SDS011;22448;51.298;6.430;2022-07-10T06:25:04;12.05;;;3.38;;
35969;SDS011;22448;51.298;6.430;2022-07-10T06:27:32;18.80;;;3.23;;
35969;SDS011;22448;51.298;6.430;2022-07-10T06:30:00;12.00;;;3.00;;
35969;SDS011;22448;51.298;6.430;2022-07-10T06:32:27;13.15;;;3.28;;
35969;SDS011;22448;51.298;6.430;2022-07-10T06:34:54;9.10;;;2.78;;
35969;SDS011;22448;51.298;6.430;2022-07-10T06:37:22;10.05;;;2.97;;
35969;SDS011;22448;51.298;6.430;2022-07-10T06:39:49;9.18;;;2.75;;
35969;SDS011;22448;51.298;6.430;2022-07-10T06:42:16;12.27;;;2.63;;
35969;SDS011;22448;51.298;6.430;2022-07-10T06:44:47;13.73;;;2.88;;
35969;SDS011;22448;51.298;6.430;2022-07-10T06:47:15;9.32;;;3.13;;
35969;SDS011;22448;51.298;6.430;2022-07-10T06:50:03;15.40;;;2.95;;
35969;SDS011;22448;51.298;6.430;2022-07-10T06:52:34;11.00;;;2.92;;
35969;SDS011;22448;51.298;6.430;2022-07-10T06:55:02;12.93;;;3.20;;
35969;SDS011;22448;51.298;6.430;2022-07-10T06:57:30;13.70;;;2.83;;
35969;SDS011;22448;51.298;6.430;2022-07-10T06:59:57;10.70;;;2.60;;
35969;SDS011;22448;51.298;6.430;2022-07-10T07:02:24;13.27;;;2.70;;
35969;SDS011;22448;51.298;6.430;2022-07-10T07:04:52;10.38;;;2.72;;
35969;SDS011;22448;51.298;6.430;2022-07-10T07:07:19;10.90;;;2.90;;
35969;SDS011;22448;51.298;6.430;2022-07-10T07:09:50;12.82;;;3.05;;
35969;SDS011;22448;51.298;6.430;2022-07-10T07:12:18;9.75;;;2.78;;
35969;SDS011;22448;51.298;6.430;2022-07-10T07:14:45;12.60;;;2.15;;
35969;SDS011;22448;51.298;6.430;2022-07-10T07:17:13;11.55;;;2.60;;
35969;SDS011;22448;51.298;6.430;2022-07-10T07:19:41;12.18;;;2.70;;
35969;SDS011;22448;51.298;6.430;2022-07-10T07:22:26;15.32;;;2.45;;
35969;SDS011;22448;51.298;6.430;2022-07-10T07:25:12;12.52;;;2.88;;
35969;SDS011;22448;51.298;6.430;2022-07-10T07:27:39;12.18;;;2.53;;
35969;SDS011;22448;51.298;6.430;2022-07-10T07:30:06;10.77;;;2.60;;
35969;SDS011;22448;51.298;6.430;2022-07-10T07:32:37;8.70;;;2.28;;
35969;SDS011;22448;51.298;6.430;2022-07-10T07:35:05;10.60;;;2.75;;
35969;SDS011;22448;51.298;6.430;2022-07-10T07:37:39;8.48;;;2.28;;
35969;SDS011;22448;51.298;6.430;2022-07-10T07:40:08;10.68;;;2.30;;
35969;SDS011;22448;51.298;6.430;2022-07-10T07:42:36;11.43;;;2.28;;
35969;SDS011;22448;51.298;6.430;2022-07-10T07:45:04;10.55;;;2.47;;
35969;SDS011;22448;51.298;6.430;2022-07-10T07:47:42;14.80;;;2.85;;
35969;SDS011;22448;51.298;6.430;2022-07-10T07:50:35;11.00;;;2.58;;
35969;SDS011;22448;51.298;6.430;2022-07-10T07:53:02;14.32;;;2.50;;
35969;SDS011;22448;51.298;6.430;2022-07-10T07:55:31;20.80;;;2.65;;
35969;SDS011;22448;51.298;6.430;2022-07-10T07:58:00;16.08;;;2.92;;
35969;SDS011;22448;51.298;6.430;2022-07-10T08:00:29;18.15;;;2.38;;
35969;SDS011;22448;51.298;6.430;2022-07-10T08:02:57;13.18;;;2.42;;
35969;SDS011;22448;51.298;6.430;2022-07-10T08:05:24;12.55;;;2.53;;
35969;SDS011;22448;51.298;6.430;2022-07-10T08:07:52;12.55;;;2.20;;
35969;SDS011;22448;51.298;6.430;2022-07-10T08:10:21;9.82;;;2.17;;
35969;SDS011;22448;51.298;6.430;2022-07-10T08:12:50;11.25;;;2.08;;
35969;SDS011;22448;51.298;6.430;2022-07-10T08:15:19;10.35;;;2.10;;
35969;SDS011;22448;51.298;6.430;2022-07-10T08:17:50;16.13;;;2.47;;
35969;SDS011;22448;51.298;6.430;2022-07-10T08:20:19;9.98;;;2.20;;
35969;SDS011;22448;51.298;6.430;2022-07-10T08:22:47;10.65;;;2.17;;
35969;SDS011;22448;51.298;6.430;2022-07-10T08:25:18;13.27;;;2.22;;
35969;SDS011;22448;51.298;6.430;2022-07-10T08:27:45;13.25;;;2.40;;
35969;SDS011;22448;51.298;6.430;2022-07-10T08:30:12;12.40;;;2.47;;
35969;SDS011;22448;51.298;6.430;2022-07-10T08:32:39;11.70;;;3.13;;
35969;SDS011;22448;51.298;6.430;2022-07-10T08:35:06;13.98;;;2.70;;
35969;SDS011;22448;51.298;6.430;2022-07-10T08:37:38;12.00;;;2.50;;
35969;SDS011;22448;51.298;6.430;2022-07-10T08:40:07;14.57;;;2.70;;
35969;SDS011;22448;51.298;6.430;2022-07-10T08:42:35;17.98;;;2.53;;
35969;SDS011;22448;51.298;6.430;2022-07-10T08:45:03;12.77;;;2.55;;
35969;SDS011;22448;51.298;6.430;2022-07-10T08:47:30;15.52;;;2.80;;
35969;SDS011;22448;51.298;6.430;2022-07-10T08:50:06;18.52;;;3.25;;
35969;SDS011;22448;51.298;6.430;2022-07-10T08:52:43;13.20;;;3.22;;
35969;SDS011;22448;51.298;6.430;2022-07-10T08:55:15;13.98;;;2.85;;
35969;SDS011;22448;51.298;6.430;2022-07-10T08:57:42;13.60;;;2.70;;
35969;SDS011;22448;51.298;6.430;2022-07-10T09:00:10;12.82;;;2.45;;
35969;SDS011;22448;51.298;6.430;2022-07-10T09:02:37;19.70;;;3.03;;
35969;SDS011;22448;51.298;6.430;2022-07-10T09:05:04;8.88;;;3.00;;
35969;SDS011;22448;51.298;6.430;2022-07-10T09:07:35;15.43;;;2.58;;
35969;SDS011;22448;51.298;6.430;2022-07-10T09:10:09;13.90;;;3.42;;
35969;SDS011;22448;51.298;6.430;2022-07-10T09:12:56;15.13;;;3.60;;
35969;SDS011;22448;51.298;6.430;2022-07-10T09:15:26;12.32;;;2.95;;
35969;SDS011;22448;51.298;6.430;2022-07-10T09:17:57;10.10;;;3.10;;
35969;SDS011;22448;51.298;6.430;2022-07-10T09:20:28;14.25;;;2.80;;
35969;SDS011;22448;51.298;6.430;2022-07-10T09:23:19;7.53;;;2.15;;
35969;SDS011;22448;51.298;6.430;2022-07-10T09:25:48;7.22;;;2.25;;
35969;SDS011;22448;51.298;6.430;2022-07-10T09:28:16;7.40;;;2.50;;
35969;SDS011;22448;51.298;6.430;2022-07-10T09:30:44;7.70;;;1.85;;
35969;SDS011;22448;51.298;6.430;2022-07-10T09:36:02;9.80;;;2.47;;
35969;SDS011;22448;51.298;6.430;2022-07-10T09:41:13;6.20;;;2.13;;
35969;SDS011;22448;51.298;6.430;2022-07-10T09:43:52;8.70;;;2.70;;
35969;SDS011;22448;51.298;6.430;2022-07-10T09:46:21;7.07;;;2.80;;
35969;SDS011;22448;51.298;6.430;2022-07-10T09:51:38;9.40;;;2.20;;
35969;SDS011;22448;51.298;6.430;2022-07-10T09:54:14;11.80;;;2.60;;
35969;SDS011;22448;51.298;6.430;2022-07-10T09:59:18;6.30;;;2.28;;
35969;SDS011;22448;51.298;6.430;2022-07-10T10:01:49;8.98;;;2.60;;
35969;SDS011;22448;51.298;6.430;2022-07-10T10:04:18;12.90;;;2.40;;
35969;SDS011;22448;51.298;6.430;2022-07-10T10:06:50;7.72;;;2.20;;
35969;SDS011;22448;51.298;6.430;2022-07-10T10:09:24;12.77;;;2.75;;
35969;SDS011;22448;51.298;6.430;2022-07-10T10:12:05;14.88;;;2.92;;
35969;SDS011;22448;51.298;6.430;2022-07-10T10:14:35;8.75;;;2.40;;
35969;SDS011;22448;51.298;6.430;2022-07-10T10:17:05;5.15;;;2.15;;
35969;SDS011;22448;51.298;6.430;2022-07-10T10:19:33;11.73;;;3.10;;
35969;SDS011;22448;51.298;6.430;2022-07-10T10:22:21;6.05;;;2.17;;
35969;SDS011;22448;51.298;6.430;2022-07-10T10:24:50;7.60;;;2.20;;
35969;SDS011;22448;51.298;6.430;2022-07-10T10:27:17;6.68;;;2.10;;
35969;SDS011;22448;51.298;6.430;2022-07-10T10:29:46;6.97;;;1.95;;
35969;SDS011;22448;51.298;6.430;2022-07-10T10:32:16;11.15;;;2.00;;
35969;SDS011;22448;51.298;6.430;2022-07-10T10:34:44;7.82;;;2.10;;
35969;SDS011;22448;51.298;6.430;2022-07-10T10:40:05;6.95;;;1.90;;
35969;SDS011;22448;51.298;6.430;2022-07-10T10:45:22;10.48;;;2.10;;
35969;SDS011;22448;51.298;6.430;2022-07-10T10:47:59;9.52;;;2.10;;
35969;SDS011;22448;51.298;6.430;2022-07-10T10:50:55;10.87;;;2.17;;
35969;SDS011;22448;51.298;6.430;2022-07-10T10:53:24;10.65;;;2.00;;
35969;SDS011;22448;51.298;6.430;2022-07-10T10:58:41;8.73;;;2.22;;
35969;SDS011;22448;51.298;6.430;2022-07-10T11:06:39;9.27;;;1.95;;
35969;SDS011;22448;51.298;6.430;2022-07-10T11:09:26;7.60;;;1.90;;
35969;SDS011;22448;51.298;6.430;2022-07-10T11:11:57;10.05;;;2.22;;
35969;SDS011;22448;51.298;6.430;2022-07-10T11:14:28;7.43;;;2.20;;
35969;SDS011;22448;51.298;6.430;2022-07-10T11:16:56;9.70;;;2.20;;
35969;SDS011;22448;51.298;6.430;2022-07-10T11:19:27;7.47;;;2.35;;
35969;SDS011;22448;51.298;6.430;2022-07-10T11:21:58;6.82;;;2.03;;
35969;SDS011;22448;51.298;6.430;2022-07-10T11:27:53;10.63;;;2.08;;
35969;SDS011;22448;51.298;6.430;2022-07-10T11:30:50;10.07;;;2.13;;
35969;SDS011;22448;51.298;6.430;2022-07-10T11:33:20;13.52;;;2.70;;
35969;SDS011;22448;51.298;6.430;2022-07-10T11:35:51;10.02;;;2.45;;
35969;SDS011;22448;51.298;6.430;2022-07-10T11:38:20;11.15;;;2.20;;
35969;SDS011;22448;51.298;6.430;2022-07-10T11:40:51;12.80;;;2.53;;
35969;SDS011;22448;51.298;6.430;2022-07-10T11:43:22;7.80;;;2.50;;
35969;SDS011;22448;51.298;6.430;2022-07-10T11:45:52;7.70;;;2.03;;
35969;SDS011;22448;51.298;6.430;2022-07-10T11:48:25;13.70;;;2.40;;
35969;SDS011;22448;51.298;6.430;2022-07-10T11:50:52;10.02;;;2.58;;
35969;SDS011;22448;51.298;6.430;2022-07-10T11:53:25;7.43;;;1.90;;
35969;SDS011;22448;51.298;6.430;2022-07-10T11:55:53;10.43;;;2.40;;
35969;SDS011;22448;51.298;6.430;2022-07-10T11:58:20;8.48;;;2.28;;
35969;SDS011;22448;51.298;6.430;2022-07-10T12:00:59;8.35;;;2.45;;
35969;SDS011;22448;51.298;6.430;2022-07-10T12:03:31;12.23;;;2.00;;
35969;SDS011;22448;51.298;6.430;2022-07-10T12:06:02;9.07;;;1.98;;
35969;SDS011;22448;51.298;6.430;2022-07-10T12:08:41;9.93;;;2.53;;
35969;SDS011;22448;51.298;6.430;2022-07-10T12:11:12;7.57;;;2.17;;
35969;SDS011;22448;51.298;6.430;2022-07-10T12:13:45;8.45;;;2.30;;
35969;SDS011;22448;51.298;6.430;2022-07-10T12:16:13;4.97;;;1.95;;
35969;SDS011;22448;51.298;6.430;2022-07-10T12:18:41;10.38;;;2.20;;
35969;SDS011;22448;51.298;6.430;2022-07-10T12:21:10;9.60;;;2.03;;
35969;SDS011;22448;51.298;6.430;2022-07-10T12:23:39;6.93;;;2.40;;
35969;SDS011;22448;51.298;6.430;2022-07-10T12:26:08;9.18;;;2.42;;
35969;SDS011;22448;51.298;6.430;2022-07-10T12:28:49;10.40;;;2.35;;
35969;SDS011;22448;51.298;6.430;2022-07-10T12:31:23;8.90;;;2.25;;
35969;SDS011;22448;51.298;6.430;2022-07-10T12:33:55;14.50;;;3.72;;
35969;SDS011;22448;51.298;6.430;2022-07-10T12:36:26;13.27;;;2.80;;
35969;SDS011;22448;51.298;6.430;2022-07-10T12:39:06;9.93;;;2.90;;
35969;SDS011;22448;51.298;6.430;2022-07-10T12:41:33;11.05;;;2.70;;
35969;SDS011;22448;51.298;6.430;2022-07-10T12:44:01;9.20;;;2.20;;
35969;SDS011;22448;51.298;6.430;2022-07-10T12:46:29;6.47;;;1.98;;
35969;SDS011;22448;51.298;6.430;2022-07-10T12:49:01;11.52;;;2.40;;
35969;SDS011;22448;51.298;6.430;2022-07-10T12:51:33;10.70;;;2.00;;
35969;SDS011;22448;51.298;6.430;2022-07-10T12:54:37;11.38;;;2.38;;
35969;SDS011;22448;51.298;6.430;2022-07-10T12:57:04;6.93;;;1.70;;
35969;SDS011;22448;51.298;6.430;2022-07-10T12:59:33;6.40;;;1.40;;
35969;SDS011;22448;51.298;6.430;2022-07-10T13:02:19;10.75;;;2.10;;
35969;SDS011;22448;51.298;6.430;2022-07-10T13:04:51;4.47;;;1.60;;
35969;SDS011;22448;51.298;6.430;2022-07-10T13:07:19;5.07;;;1.73;;
35969;SDS011;22448;51.298;6.430;2022-07-10T13:09:54;9.07;;;1.40;;
35969;SDS011;22448;51.298;6.430;2022-07-10T13:12:29;7.47;;;1.70;;
35969;SDS011;22448;51.298;6.430;2022-07-10T13:14:55;8.05;;;1.40;;
35969;SDS011;22448;51.298;6.430;2022-07-10T13:17:22;6.22;;;1.58;;
35969;SDS011;22448;51.298;6.430;2022-07-10T13:19:50;3.85;;;1.27;;
35969;SDS011;22448;51.298;6.430;2022-07-10T13:22:17;10.73;;;1.52;;
35969;SDS011;22448;51.298;6.430;2022-07-10T13:24:44;7.95;;;1.38;;
35969;SDS011;22448;51.298;6.430;2022-07-10T13:27:11;6.57;;;1.30;;
35969;SDS011;22448;51.298;6.430;2022-07-10T13:29:38;6.70;;;1.45;;
35969;SDS011;22448;51.298;6.430;2022-07-10T13:32:05;6.18;;;1.50;;
35969;SDS011;22448;51.298;6.430;2022-07-10T13:34:32;8.15;;;1.77;;
35969;SDS011;22448;51.298;6.430;2022-07-10T13:37:00;5.57;;;1.45;;
35969;SDS011;22448;51.298;6.430;2022-07-10T13:39:28;4.22;;;1.75;;
35969;SDS011;22448;51.298;6.430;2022-07-10T13:41:55;7.35;;;1.42;;
35969;SDS011;22448;51.298;6.430;2022-07-10T13:44:21;3.92;;;1.20;;
35969;SDS011;22448;51.298;6.430;2022-07-10T13:46:48;6.10;;;1.67;;
35969;SDS011;22448;51.298;6.430;2022-07-10T13:49:15;4.53;;;1.38;;
35969;SDS011;22448;51.298;6.430;2022-07-10T13:51:42;6.10;;;1.45;;
35969;SDS011;22448;51.298;6.430;2022-07-10T13:54:09;7.40;;;1.85;;
35969;SDS011;22448;51.298;6.430;2022-07-10T13:56:36;8.85;;;1.67;;
35969;SDS011;22448;51.298;6.430;2022-07-10T13:59:03;6.75;;;1.52;;
35969;SDS011;22448;51.298;6.430;2022-07-10T14:01:30;10.43;;;4.30;;
35969;SDS011;22448;51.298;6.430;2022-07-10T14:03:57;5.43;;;1.52;;
35969;SDS011;22448;51.298;6.430;2022-07-10T14:06:24;8.73;;;1.60;;
35969;SDS011;22448;51.298;6.430;2022-07-10T14:08:51;7.55;;;1.90;;
35969;SDS011;22448;51.298;6.430;2022-07-10T14:11:18;3.28;;;1.42;;
35969;SDS011;22448;51.298;6.430;2022-07-10T14:13:45;4.10;;;1.63;;
35969;SDS011;22448;51.298;6.430;2022-07-10T14:16:12;8.07;;;1.60;;
35969;SDS011;22448;51.298;6.430;2022-07-10T14:18:39;5.28;;;1.80;;
35969;SDS011;22448;51.298;6.430;2022-07-10T14:21:11;7.32;;;1.70;;
35969;SDS011;22448;51.298;6.430;2022-07-10T14:23:40;10.10;;;1.88;;
35969;SDS011;22448;51.298;6.430;2022-07-10T14:26:10;3.25;;;1.45;;
35969;SDS011;22448;51.298;6.430;2022-07-10T14:28:40;6.15;;;1.55;;
35969;SDS011;22448;51.298;6.430;2022-07-10T14:31:08;5.20;;;1.38;;
35969;SDS011;22448;51.298;6.430;2022-07-10T14:33:35;8.20;;;1.98;;
35969;SDS011;22448;51.298;6.430;2022-07-10T14:36:03;5.07;;;1.85;;
35969;SDS011;22448;51.298;6.430;2022-07-10T14:38:31;7.05;;;1.40;;
35969;SDS011;22448;51.298;6.430;2022-07-10T14:40:58;8.48;;;1.60;;
35969;SDS011;22448;51.298;6.430;2022-07-10T14:43:25;3.67;;;1.65;;
35969;SDS011;22448;51.298;6.430;2022-07-10T14:45:54;4.95;;;1.30;;
35969;SDS011;22448;51.298;6.430;2022-07-10T14:48:29;9.75;;;1.90;;
35969;SDS011;22448;51.298;6.430;2022-07-10T14:50:57;5.05;;;1.40;;
35969;SDS011;22448;51.298;6.430;2022-07-10T14:53:24;4.03;;;1.63;;
35969;SDS011;22448;51.298;6.430;2022-07-10T14:55:51;3.05;;;1.45;;
35969;SDS011;22448;51.298;6.430;2022-07-10T14:58:18;4.15;;;1.30;;
35969;SDS011;22448;51.298;6.430;2022-07-10T15:00:45;4.20;;;1.60;;
35969;SDS011;22448;51.298;6.430;2022-07-10T15:03:12;7.45;;;1.50;;
35969;SDS011;22448;51.298;6.430;2022-07-10T15:05:39;6.28;;;1.52;;
35969;SDS011;22448;51.298;6.430;2022-07-10T15:08:06;5.40;;;1.20;;
35969;SDS011;22448;51.298;6.430;2022-07-10T15:10:33;9.30;;;1.50;;
35969;SDS011;22448;51.298;6.430;2022-07-10T15:13:00;4.03;;;1.38;;
35969;SDS011;22448;51.298;6.430;2022-07-10T15:15:31;5.13;;;2.25;;
35969;SDS011;22448;51.298;6.430;2022-07-10T15:17:59;6.80;;;1.50;;
35969;SDS011;22448;51.298;6.430;2022-07-10T15:20:26;5.43;;;1.55;;